Forest, Canada
Current Conditions -  °F | °C
As of 1:00 AM on Tuesday 21 Oct 2014 (Local Time) from CYZR Reporting Station
Overcast Overcast  
Wind Chill: 50°   Ceiling: 1400
Heat Index: 50°   Visibility: 9mi
Dew Point: 46°   Wind: 14mph
Humidity: 87%   Direction: 340°NNW
Pressure: 29.85"   Gusts: NA
Location:  43.1°N, 82°W
Report Text: CYZR 210500Z AUTO 34012KT 9SM BKN014 OVC024 10/08 A2985 RMK SLP109
Loading
Personal Weather Stations






























Interactive Weather Map
Tropical Storm Tracking
New forecast layout! Learn more

10-Day Weather Forecast

Advertisements
Track Severe Weather on mobile